Time;durP1;ratioP1;P1;durP2;ratioP2;P2;SDS_P1;SDS_P2;PMS_P1;PMS_P2;Temp;Humidity;BMP_temperature;BMP_pressure;BME280_temperature;BME280_humidity;BME280_pressure;Samples;Min_cycle;Max_cycle;Signal;HPM_P1;HPM_P2
2021/03/15 00:00:31;;;;;;;9.40;3.95;;;;;;;;;;4995441;28;20022;-86
2021/03/15 00:03:16;;;;;;;7.20;3.55;;;;;;;;;;5001760;28;20026;-85
2021/03/15 00:06:02;;;;;;;8.13;3.25;;;;;;;;;;5002422;28;20116;-86
2021/03/15 00:08:47;;;;;;;6.95;3.10;;;;;;;;;;4989663;28;20026;-86
2021/03/15 00:11:32;;;;;;;6.85;3.10;;;;;;;;;;5020513;28;20029;-85
2021/03/15 00:14:18;;;;;;;7.70;3.60;;;;;;;;;;5017806;28;20113;-86
2021/03/15 00:17:03;;;;;;;8.20;3.42;;;;;;;;;;4993498;28;20385;-86
2021/03/15 00:19:48;;;;;;;6.03;3.30;;;;;;;;;;4993139;28;20108;-84
2021/03/15 00:22:33;;;;;;;6.20;4.05;;;;;;;;;;5013611;28;20535;-85
2021/03/15 00:25:19;;;;;;;6.40;3.92;;;;;;;;;;4999681;28;20045;-84
2021/03/15 00:28:04;;;;;;;7.20;3.42;;;;;;;;;;4993117;28;20488;-84
2021/03/15 00:30:49;;;;;;;6.63;3.65;;;;;;;;;;5017150;28;20036;-84
2021/03/15 00:33:34;;;;;;;8.63;4.47;;;;;;;;;;5014925;28;20116;-84
2021/03/15 00:36:20;;;;;;;11.38;5.13;;;;;;;;;;5016094;28;20115;-84
2021/03/15 00:39:05;;;;;;;7.50;3.78;;;;;;;;;;4991350;28;20030;-84
2021/03/15 00:41:50;;;;;;;9.48;3.60;;;;;;;;;;5002816;28;20026;-85
2021/03/15 00:44:36;;;;;;;7.65;3.63;;;;;;;;;;5002830;28;20029;-85
2021/03/15 00:47:21;;;;;;;7.70;3.88;;;;;;;;;;4996893;28;20021;-85
2021/03/15 00:50:08;;;;;;;8.77;3.13;;;;;;;;;;5001796;28;20397;-85
2021/03/15 00:52:53;;;;;;;10.38;4.95;;;;;;;;;;5013368;28;20049;-85
2021/03/15 00:55:39;;;;;;;6.25;3.65;;;;;;;;;;5015233;28;20144;-85
2021/03/15 00:58:24;;;;;;;5.95;3.28;;;;;;;;;;5021874;28;20452;-85
2021/03/15 01:01:10;;;;;;;7.10;3.95;;;;;;;;;;5003098;28;20109;-85
2021/03/15 01:03:56;;;;;;;8.45;3.45;;;;;;;;;;4991989;28;20141;-84
2021/03/15 01:06:41;;;;;;;7.03;3.72;;;;;;;;;;4996523;28;20558;-85
2021/03/15 01:09:27;;;;;;;7.25;4.03;;;;;;;;;;5016851;28;20661;-85
2021/03/15 01:12:12;;;;;;;5.80;4.22;;;;;;;;;;4998330;28;20056;-85
2021/03/15 01:14:57;;;;;;;5.65;3.60;;;;;;;;;;5010294;28;20511;-86
2021/03/15 01:17:42;;;;;;;8.95;3.75;;;;;;;;;;5003831;28;20026;-87
2021/03/15 01:20:28;;;;;;;7.53;3.35;;;;;;;;;;5005038;28;20149;-86
2021/03/15 01:23:13;;;;;;;4.18;3.15;;;;;;;;;;5013687;28;20029;-85
2021/03/15 01:25:59;;;;;;;6.22;4.32;;;;;;;;;;4991643;28;20483;-86
2021/03/15 01:28:44;;;;;;;5.13;3.28;;;;;;;;;;5006191;28;20041;-86
2021/03/15 01:31:29;;;;;;;6.30;3.53;;;;;;;;;;5004919;28;20022;-85
2021/03/15 01:34:14;;;;;;;5.45;3.70;;;;;;;;;;5005276;28;20608;-86
2021/03/15 01:37:00;;;;;;;6.18;3.30;;;;;;;;;;5003280;28;20036;-85
2021/03/15 01:39:45;;;;;;;6.97;3.70;;;;;;;;;;5004490;28;20070;-85
2021/03/15 01:42:30;;;;;;;6.32;3.83;;;;;;;;;;5003672;28;20026;-85
2021/03/15 01:45:16;;;;;;;10.27;4.38;;;;;;;;;;5017327;28;20931;-84
2021/03/15 01:48:02;;;;;;;9.85;4.10;;;;;;;;;;5014641;28;20049;-85
2021/03/15 01:50:48;;;;;;;6.95;3.97;;;;;;;;;;5016341;28;20108;-84
2021/03/15 01:53:34;;;;;;;7.50;3.85;;;;;;;;;;4996995;28;20424;-84
2021/03/15 01:56:19;;;;;;;6.22;4.15;;;;;;;;;;4999004;28;20022;-84
2021/03/15 01:59:05;;;;;;;8.10;4.55;;;;;;;;;;4994848;28;20022;-85
2021/03/15 02:01:50;;;;;;;6.47;3.80;;;;;;;;;;4996673;28;20022;-84
2021/03/15 02:04:36;;;;;;;7.63;3.83;;;;;;;;;;4993307;28;20464;-84
2021/03/15 02:07:21;;;;;;;11.45;4.20;;;;;;;;;;4999967;28;20354;-84
2021/03/15 02:10:06;;;;;;;6.35;4.25;;;;;;;;;;5005630;28;20021;-85
2021/03/15 02:13:05;;;;;;;9.95;4.05;;;;;;;;;;4999883;28;20167;-86
2021/03/15 02:15:59;;;;;;;7.80;4.03;;;;;;;;;;5004802;28;20026;-85
2021/03/15 02:19:03;;;;;;;8.63;4.50;;;;;;;;;;4998778;28;20026;-85
2021/03/15 02:22:12;;;;;;;8.15;4.15;;;;;;;;;;4990255;28;20404;-85
2021/03/15 02:24:57;;;;;;;9.10;4.18;;;;;;;;;;5000969;28;20041;-86
2021/03/15 02:27:55;;;;;;;9.88;3.67;;;;;;;;;;4988389;28;20160;-85
2021/03/15 02:30:40;;;;;;;6.53;3.40;;;;;;;;;;4994985;28;20747;-85
2021/03/15 02:33:44;;;;;;;10.15;4.38;;;;;;;;;;4999190;28;20029;-85
2021/03/15 02:36:38;;;;;;;8.27;3.90;;;;;;;;;;5022169;28;20557;-86
2021/03/15 02:39:26;;;;;;;8.88;4.35;;;;;;;;;;5021279;28;20034;-85
2021/03/15 02:42:13;;;;;;;10.45;4.55;;;;;;;;;;5000861;28;20049;-84
2021/03/15 02:44:59;;;;;;;8.45;3.90;;;;;;;;;;4996865;28;20025;-85
2021/03/15 02:47:45;;;;;;;7.22;3.95;;;;;;;;;;5018301;28;20257;-84
2021/03/15 02:50:31;;;;;;;9.80;4.75;;;;;;;;;;5004769;28;20010;-83
2021/03/15 02:53:17;;;;;;;6.68;4.03;;;;;;;;;;5013450;28;20075;-84
2021/03/15 02:56:06;;;;;;;7.40;4.00;;;;;;;;;;5001211;28;20157;-85
2021/03/15 02:58:54;;;;;;;8.10;4.60;;;;;;;;;;4999437;28;20037;-84
2021/03/15 03:01:39;;;;;;;6.82;3.78;;;;;;;;;;5001035;28;20026;-84
2021/03/15 03:04:25;;;;;;;8.85;4.13;;;;;;;;;;5000645;28;20418;-85
2021/03/15 03:07:10;;;;;;;7.70;4.25;;;;;;;;;;5003150;28;20052;-85
2021/03/15 03:09:56;;;;;;;9.43;4.72;;;;;;;;;;4994266;28;20468;-85
2021/03/15 03:12:41;;;;;;;8.38;4.10;;;;;;;;;;5014653;28;20033;-84
2021/03/15 03:15:30;;;;;;;9.10;4.28;;;;;;;;;;5003707;28;20022;-84
2021/03/15 03:18:16;;;;;;;12.15;4.68;;;;;;;;;;5012354;28;20026;-84
2021/03/15 03:21:02;;;;;;;11.15;4.15;;;;;;;;;;4989495;28;20071;-85
2021/03/15 03:23:56;;;;;;;8.10;4.15;;;;;;;;;;5011010;28;20022;-84
2021/03/15 03:26:42;;;;;;;7.15;4.13;;;;;;;;;;4998822;28;20030;-85
2021/03/15 03:29:28;;;;;;;7.43;4.32;;;;;;;;;;5008171;28;20021;-85
2021/03/15 03:32:13;;;;;;;9.63;4.25;;;;;;;;;;4978757;28;20022;-85
2021/03/15 03:34:59;;;;;;;9.35;4.05;;;;;;;;;;4996008;28;20025;-86
2021/03/15 03:37:44;;;;;;;6.28;3.92;;;;;;;;;;4999509;28;20029;-85
2021/03/15 03:40:29;;;;;;;11.40;4.18;;;;;;;;;;5001284;28;20664;-86
2021/03/15 03:43:15;;;;;;;11.98;3.85;;;;;;;;;;4998515;28;20032;-85
2021/03/15 03:46:00;;;;;;;7.68;4.38;;;;;;;;;;5002528;28;20025;-84
2021/03/15 03:48:45;;;;;;;12.90;4.65;;;;;;;;;;5006531;28;20706;-86
2021/03/15 03:51:51;;;;;;;8.70;4.15;;;;;;;;;;5003525;28;20160;-86
2021/03/15 03:54:39;;;;;;;8.13;3.80;;;;;;;;;;5007937;28;20526;-85
2021/03/15 03:57:31;;;;;;;9.55;4.82;;;;;;;;;;5007771;28;20030;-86
2021/03/15 04:00:17;;;;;;;9.15;4.68;;;;;;;;;;5016639;28;20057;-86
2021/03/15 04:03:14;;;;;;;8.88;5.50;;;;;;;;;;4987595;28;20037;-88
2021/03/15 04:06:02;;;;;;;6.90;4.07;;;;;;;;;;5001847;28;20600;-85
2021/03/15 04:08:54;;;;;;;9.13;3.72;;;;;;;;;;4994355;28;20121;-85
2021/03/15 04:11:45;;;;;;;9.60;3.95;;;;;;;;;;5013888;28;20660;-85
2021/03/15 04:14:31;;;;;;;8.88;3.70;;;;;;;;;;5013692;28;20026;-87
2021/03/15 04:17:19;;;;;;;11.38;4.20;;;;;;;;;;5002086;28;20029;-84
2021/03/15 04:20:06;;;;;;;12.38;4.70;;;;;;;;;;5009546;28;20519;-85
2021/03/15 04:22:52;;;;;;;8.98;3.88;;;;;;;;;;5019868;28;20025;-85
2021/03/15 04:25:39;;;;;;;8.73;4.35;;;;;;;;;;4997357;28;20029;-87
2021/03/15 04:28:26;;;;;;;6.97;3.63;;;;;;;;;;5017286;28;20025;-85
2021/03/15 04:31:11;;;;;;;8.45;4.15;;;;;;;;;;5005118;28;20025;-84
2021/03/15 04:33:58;;;;;;;11.60;3.90;;;;;;;;;;5004487;28;20045;-84
2021/03/15 04:36:43;;;;;;;8.68;3.95;;;;;;;;;;5028049;28;20373;-85
2021/03/15 04:39:30;;;;;;;12.15;4.40;;;;;;;;;;4999757;28;20025;-86
2021/03/15 04:42:15;;;;;;;6.82;3.38;;;;;;;;;;4988161;28;21164;-85
2021/03/15 04:45:01;;;;;;;6.68;3.08;;;;;;;;;;5019733;28;20022;-87
2021/03/15 04:47:46;;;;;;;9.27;4.57;;;;;;;;;;5026614;28;20029;-86
2021/03/15 04:50:32;;;;;;;8.00;3.50;;;;;;;;;;5008426;28;20051;-86
2021/03/15 04:53:18;;;;;;;5.50;2.83;;;;;;;;;;5026112;28;20049;-87
2021/03/15 04:56:06;;;;;;;7.40;3.30;;;;;;;;;;5013302;28;20025;-86
2021/03/15 04:58:52;;;;;;;6.50;3.30;;;;;;;;;;5014809;28;20100;-88
2021/03/15 05:01:40;;;;;;;6.10;2.83;;;;;;;;;;5025650;28;20055;-87
2021/03/15 05:04:25;;;;;;;6.20;3.30;;;;;;;;;;5003689;28;20021;-84
2021/03/15 05:07:11;;;;;;;9.13;3.53;;;;;;;;;;5006461;28;20434;-86
2021/03/15 05:09:57;;;;;;;9.40;3.75;;;;;;;;;;4989766;28;20030;-86
2021/03/15 05:12:43;;;;;;;5.25;3.03;;;;;;;;;;5025011;28;20101;-86
2021/03/15 05:15:28;;;;;;;6.35;3.97;;;;;;;;;;5008641;28;20952;-85
2021/03/15 05:18:14;;;;;;;11.38;4.72;;;;;;;;;;5010347;28;20413;-84
2021/03/15 05:20:59;;;;;;;10.02;4.10;;;;;;;;;;4990080;28;20125;-85
2021/03/15 05:23:45;;;;;;;14.18;4.45;;;;;;;;;;5009066;28;20045;-85
2021/03/15 05:26:32;;;;;;;11.07;3.78;;;;;;;;;;5023314;28;20515;-85
2021/03/15 05:29:18;;;;;;;11.30;3.63;;;;;;;;;;5007923;28;20080;-86
2021/03/15 05:32:05;;;;;;;5.22;2.88;;;;;;;;;;5004808;28;20018;-86
2021/03/15 05:34:52;;;;;;;7.05;3.83;;;;;;;;;;5005950;28;20113;-88
2021/03/15 05:37:37;;;;;;;9.98;4.13;;;;;;;;;;5008123;28;20113;-86
2021/03/15 05:40:23;;;;;;;9.85;3.60;;;;;;;;;;5021982;28;20495;-86
2021/03/15 05:43:18;;;;;;;8.68;4.40;;;;;;;;;;5006756;28;20056;-86
2021/03/15 05:46:06;;;;;;;11.93;4.38;;;;;;;;;;4993491;28;20028;-86
2021/03/15 05:49:06;;;;;;;9.65;4.25;;;;;;;;;;5015092;28;20025;-85
2021/03/15 05:52:10;;;;;;;7.85;3.83;;;;;;;;;;5005059;28;20034;-84
2021/03/15 05:55:04;;;;;;;11.55;3.28;;;;;;;;;;5014731;28;20026;-84
2021/03/15 05:58:11;;;;;;;6.63;2.92;;;;;;;;;;5016714;28;20373;-84
2021/03/15 06:01:02;;;;;;;7.43;3.50;;;;;;;;;;5021753;28;20765;-87
2021/03/15 06:03:56;;;;;;;9.40;3.20;;;;;;;;;;5000752;28;20561;-85
2021/03/15 06:06:42;;;;;;;6.50;3.17;;;;;;;;;;4998965;28;20434;-83
2021/03/15 06:09:36;;;;;;;7.15;3.28;;;;;;;;;;5007204;28;20098;-84
2021/03/15 06:12:25;;;;;;;7.50;3.25;;;;;;;;;;5004447;28;20052;-84
2021/03/15 06:15:11;;;;;;;9.48;3.10;;;;;;;;;;5002797;28;20492;-84
2021/03/15 06:17:57;;;;;;;4.30;2.80;;;;;;;;;;4997088;28;20637;-83
2021/03/15 06:20:47;;;;;;;6.75;2.97;;;;;;;;;;5002474;28;20085;-85
2021/03/15 06:23:32;;;;;;;7.03;2.97;;;;;;;;;;5015709;28;20612;-84
2021/03/15 06:26:19;;;;;;;6.63;2.20;;;;;;;;;;4997463;28;20044;-84
2021/03/15 06:29:04;;;;;;;6.43;2.92;;;;;;;;;;5000073;28;20104;-85
2021/03/15 06:31:50;;;;;;;5.85;3.10;;;;;;;;;;4993846;28;20121;-85
2021/03/15 06:34:36;;;;;;;5.90;2.35;;;;;;;;;;5001505;28;20081;-84
2021/03/15 06:37:21;;;;;;;4.63;2.72;;;;;;;;;;5018215;28;20026;-84
2021/03/15 06:40:07;;;;;;;9.52;3.58;;;;;;;;;;5001195;28;20073;-85
2021/03/15 06:42:53;;;;;;;8.00;3.00;;;;;;;;;;4987146;28;20500;-85
2021/03/15 06:45:39;;;;;;;6.90;2.50;;;;;;;;;;5002378;28;20137;-88
2021/03/15 06:48:25;;;;;;;7.25;3.15;;;;;;;;;;5005580;28;20489;-85
2021/03/15 06:51:10;;;;;;;6.85;2.63;;;;;;;;;;5000146;28;20474;-83
2021/03/15 06:54:17;;;;;;;6.03;2.50;;;;;;;;;;5022222;28;20562;-85
2021/03/15 06:57:21;;;;;;;4.90;2.40;;;;;;;;;;5008038;28;20026;-82
2021/03/15 07:00:07;;;;;;;5.60;2.50;;;;;;;;;;4997740;28;20022;-79
2021/03/15 07:02:59;;;;;;;4.25;2.33;;;;;;;;;;5003028;28;20472;-81
2021/03/15 07:05:54;;;;;;;6.38;3.10;;;;;;;;;;5011494;28;20061;-80
2021/03/15 07:08:39;;;;;;;4.80;2.17;;;;;;;;;;5011889;28;20381;-84
2021/03/15 07:11:25;;;;;;;2.75;1.90;;;;;;;;;;4997338;28;20025;-84
2021/03/15 07:14:26;;;;;;;4.72;2.13;;;;;;;;;;5014500;28;20082;-84
2021/03/15 07:17:19;;;;;;;5.65;2.45;;;;;;;;;;5014374;28;20053;-87
2021/03/15 07:20:06;;;;;;;4.38;1.75;;;;;;;;;;4986520;28;20046;-84
2021/03/15 07:22:51;;;;;;;2.88;1.40;;;;;;;;;;5012492;28;20449;-83
2021/03/15 07:25:37;;;;;;;4.28;2.65;;;;;;;;;;5019824;28;20120;-85
2021/03/15 07:28:29;;;;;;;8.95;5.05;;;;;;;;;;5010197;28;20090;-86
2021/03/15 07:31:17;;;;;;;2.45;1.92;;;;;;;;;;4998401;28;20026;-86
2021/03/15 07:34:03;;;;;;;3.80;2.10;;;;;;;;;;4997603;28;20480;-84
2021/03/15 07:36:52;;;;;;;9.18;2.58;;;;;;;;;;5002124;28;20354;-84
2021/03/15 07:39:38;;;;;;;;;;;;;;;;;;5012168;28;20536;-86
2021/03/15 07:42:23;;;;;;;4.90;1.48;;;;;;;;;;4994370;28;19984;-86
2021/03/15 07:45:08;;;;;;;2.75;1.27;;;;;;;;;;5006045;28;20010;-85
2021/03/15 07:47:54;;;;;;;2.35;1.10;;;;;;;;;;4981203;28;20071;-87
2021/03/15 07:50:40;;;;;;;4.57;1.67;;;;;;;;;;5013675;28;20088;-87
2021/03/15 07:53:35;;;;;;;3.42;1.25;;;;;;;;;;5007786;28;20056;-87
2021/03/15 07:56:21;;;;;;;1.30;1.02;;;;;;;;;;5006097;28;20485;-86
2021/03/15 07:59:06;;;;;;;1.92;1.30;;;;;;;;;;4985027;28;20025;-84
2021/03/15 08:01:51;;;;;;;2.40;1.30;;;;;;;;;;4976914;28;20464;-82
2021/03/15 08:04:37;;;;;;;2.88;1.42;;;;;;;;;;5014475;28;20030;-86
2021/03/15 08:07:23;;;;;;;2.03;1.38;;;;;;;;;;4998943;28;20095;-84
2021/03/15 08:10:08;;;;;;;20.23;10.88;;;;;;;;;;5002382;28;20018;-84
2021/03/15 08:12:55;;;;;;;4.18;2.22;;;;;;;;;;5025560;28;20034;-84
2021/03/15 08:15:44;;;;;;;2.38;1.55;;;;;;;;;;4999750;28;20113;-84
2021/03/15 08:18:33;;;;;;;1.75;1.38;;;;;;;;;;5018247;28;20500;-84
2021/03/15 08:21:23;;;;;;;2.53;1.33;;;;;;;;;;4998355;28;20042;-82
2021/03/15 08:24:11;;;;;;;2.22;1.30;;;;;;;;;;4999473;28;20538;-83
2021/03/15 08:26:57;;;;;;;1.95;1.50;;;;;;;;;;5021987;28;20428;-85
2021/03/15 08:29:45;;;;;;;4.15;1.80;;;;;;;;;;5029451;28;20024;-86
2021/03/15 08:32:33;;;;;;;1.65;1.10;;;;;;;;;;4995583;28;20383;-84
2021/03/15 08:35:19;;;;;;;2.03;1.27;;;;;;;;;;5006117;28;20050;-83
2021/03/15 08:38:05;;;;;;;2.05;1.50;;;;;;;;;;5005261;28;20029;-84
2021/03/15 08:40:51;;;;;;;3.85;1.52;;;;;;;;;;4995883;28;20107;-83
2021/03/15 08:43:39;;;;;;;5.22;1.27;;;;;;;;;;4978455;28;20030;-84
2021/03/15 08:46:24;;;;;;;2.25;1.10;;;;;;;;;;5016862;28;20376;-83
2021/03/15 08:49:19;;;;;;;2.63;1.10;;;;;;;;;;4996757;28;20025;-84
2021/03/15 08:52:04;;;;;;;1.90;1.20;;;;;;;;;;5015574;28;20424;-87
2021/03/15 08:54:49;;;;;;;4.07;1.40;;;;;;;;;;5010820;28;20112;-87
2021/03/15 08:57:35;;;;;;;2.67;1.63;;;;;;;;;;4997695;28;20092;-84
2021/03/15 09:00:33;;;;;;;3.08;1.40;;;;;;;;;;4994717;28;20108;-86
2021/03/15 09:03:40;;;;;;;4.03;1.17;;;;;;;;;;4998752;28;20026;-85
2021/03/15 09:06:37;;;;;;;2.90;1.10;;;;;;;;;;4995469;28;20555;-86
2021/03/15 09:09:27;;;;;;;1.67;1.20;;;;;;;;;;5016211;28;20045;-89
2021/03/15 09:12:16;;;;;;;3.08;1.10;;;;;;;;;;5009160;28;20022;-88
2021/03/15 09:15:02;;;;;;;2.13;1.42;;;;;;;;;;5006464;28;20533;-88
2021/03/15 09:17:47;;;;;;;2.78;0.98;;;;;;;;;;5004280;28;20057;-84
2021/03/15 09:20:35;;;;;;;20.50;12.98;;;;;;;;;;5003466;28;20721;-88
2021/03/15 09:23:28;;;;;;;1.23;1.08;;;;;;;;;;5005569;28;20077;-89
2021/03/15 09:26:29;;;;;;;0.82;0.80;;;;;;;;;;5021108;28;20026;-88
2021/03/15 09:29:15;;;;;;;1.38;0.82;;;;;;;;;;5007048;28;20492;-86
2021/03/15 09:32:05;;;;;;;3.33;0.70;;;;;;;;;;5010322;28;20463;-86
2021/03/15 09:34:50;;;;;;;2.30;0.88;;;;;;;;;;5004806;28;20139;-87
2021/03/15 09:37:38;;;;;;;1.45;1.00;;;;;;;;;;5010718;28;20033;-88
2021/03/15 09:40:25;;;;;;;1.48;0.90;;;;;;;;;;5009576;28;20476;-89
2021/03/15 09:43:19;;;;;;;1.00;0.70;;;;;;;;;;4999917;28;20077;-88
2021/03/15 09:46:07;;;;;;;2.40;0.90;;;;;;;;;;5015316;28;20036;-89
2021/03/15 09:48:53;;;;;;;1.00;0.70;;;;;;;;;;5027514;28;20014;-88
2021/03/15 09:51:38;;;;;;;3.13;1.20;;;;;;;;;;5023664;28;20041;-87
2021/03/15 09:54:42;;;;;;;1.48;1.10;;;;;;;;;;5015503;28;20026;-86
2021/03/15 09:57:28;;;;;;;1.58;1.30;;;;;;;;;;5018984;28;21231;-88
2021/03/15 10:00:14;;;;;;;3.72;1.40;;;;;;;;;;5012719;28;20084;-84
2021/03/15 10:03:00;;;;;;;2.38;1.30;;;;;;;;;;4991363;28;20077;-86
2021/03/15 10:05:51;;;;;;;2.28;1.63;;;;;;;;;;5014440;28;20101;-85
2021/03/15 10:08:36;;;;;;;2.70;1.23;;;;;;;;;;5002835;28;20042;-85
2021/03/15 10:11:22;;;;;;;2.45;1.63;;;;;;;;;;4998785;28;20022;-85
2021/03/15 10:14:07;;;;;;;3.63;1.42;;;;;;;;;;4999599;28;20018;-85
2021/03/15 10:17:01;;;;;;;2.00;1.42;;;;;;;;;;5000201;28;20021;-85
2021/03/15 10:19:46;;;;;;;9.80;5.45;;;;;;;;;;5004716;28;20552;-86
2021/03/15 10:22:33;;;;;;;3.72;2.53;;;;;;;;;;5008014;28;20136;-87
2021/03/15 10:25:19;;;;;;;3.80;1.52;;;;;;;;;;5002781;28;20151;-85
2021/03/15 10:28:04;;;;;;;3.75;1.83;;;;;;;;;;4989096;28;20321;-81
2021/03/15 10:30:50;;;;;;;2.88;1.70;;;;;;;;;;5005849;28;20191;-82
2021/03/15 10:33:35;;;;;;;3.33;2.15;;;;;;;;;;4985469;28;20033;-84
2021/03/15 10:36:21;;;;;;;3.00;1.90;;;;;;;;;;4999993;28;20022;-84
2021/03/15 10:39:07;;;;;;;2.67;1.70;;;;;;;;;;4998484;28;20040;-83
2021/03/15 10:41:52;;;;;;;2.38;1.58;;;;;;;;;;4985953;28;20070;-82
2021/03/15 10:44:38;;;;;;;3.67;1.70;;;;;;;;;;4995925;28;20032;-84
2021/03/15 10:47:30;;;;;;;2.15;1.60;;;;;;;;;;4984643;28;20025;-85
2021/03/15 10:50:32;;;;;;;2.42;1.42;;;;;;;;;;4998695;28;20097;-85
2021/03/15 10:53:19;;;;;;;5.20;1.80;;;;;;;;;;4998936;28;20160;-85
2021/03/15 10:56:14;;;;;;;2.50;1.73;;;;;;;;;;5014719;28;20026;-85
2021/03/15 10:58:59;;;;;;;4.28;1.80;;;;;;;;;;4997912;28;20018;-85
2021/03/15 11:01:51;;;;;;;2.00;1.73;;;;;;;;;;5006066;28;20053;-84
2021/03/15 11:04:37;;;;;;;1.52;1.40;;;;;;;;;;5003772;28;20571;-86
2021/03/15 11:07:23;;;;;;;6.57;3.70;;;;;;;;;;5004946;28;20528;-81
2021/03/15 11:10:16;;;;;;;8.68;3.92;;;;;;;;;;5011116;28;20029;-80
2021/03/15 11:13:13;;;;;;;2.35;1.50;;;;;;;;;;4999766;28;20108;-80
2021/03/15 11:15:58;;;;;;;2.45;1.52;;;;;;;;;;4999325;28;20065;-81
2021/03/15 11:18:43;;;;;;;2.42;1.48;;;;;;;;;;4994843;28;20092;-81
2021/03/15 11:21:29;;;;;;;4.07;1.77;;;;;;;;;;4999051;28;20050;-86
2021/03/15 11:24:21;;;;;;;1.58;1.33;;;;;;;;;;4998384;28;20036;-84
2021/03/15 11:27:07;;;;;;;2.10;1.67;;;;;;;;;;4993898;28;20053;-85
2021/03/15 11:29:53;;;;;;;2.15;1.58;;;;;;;;;;4997324;28;20022;-86
2021/03/15 11:32:41;;;;;;;2.55;1.40;;;;;;;;;;5010880;28;20373;-85
2021/03/15 11:35:26;;;;;;;3.83;1.33;;;;;;;;;;5006288;28;20084;-83
2021/03/15 11:38:12;;;;;;;2.92;2.15;;;;;;;;;;4996104;28;20381;-83
2021/03/15 11:41:07;;;;;;;1.83;1.35;;;;;;;;;;4992123;28;20030;-85
2021/03/15 11:43:53;;;;;;;3.63;1.50;;;;;;;;;;4998421;28;20088;-83
2021/03/15 11:46:38;;;;;;;1.88;1.30;;;;;;;;;;4999253;28;20033;-83
2021/03/15 11:49:23;;;;;;;2.53;1.40;;;;;;;;;;5004094;28;20045;-85
2021/03/15 11:52:09;;;;;;;2.30;1.73;;;;;;;;;;5014686;28;20018;-86
2021/03/15 11:54:54;;;;;;;25.27;16.77;;;;;;;;;;4994272;28;20046;-89
2021/03/15 11:57:40;;;;;;;71.43;42.33;;;;;;;;;;4998208;28;20117;-88
2021/03/15 12:00:25;;;;;;;3.05;2.05;;;;;;;;;;4986260;28;20105;-86
2021/03/15 12:03:11;;;;;;;2.40;1.48;;;;;;;;;;5019776;28;20041;-85
2021/03/15 12:05:56;;;;;;;2.88;1.40;;;;;;;;;;5000123;28;20026;-86
2021/03/15 12:08:42;;;;;;;1.88;1.40;;;;;;;;;;5005507;28;20496;-83
2021/03/15 12:11:29;;;;;;;2.20;1.67;;;;;;;;;;4990675;28;20034;-87
2021/03/15 12:14:15;;;;;;;3.28;1.80;;;;;;;;;;4987283;28;20654;-82
2021/03/15 12:17:00;;;;;;;2.38;1.75;;;;;;;;;;5004960;28;20362;-81
2021/03/15 12:19:45;;;;;;;1.40;1.30;;;;;;;;;;4995420;28;20066;-82
2021/03/15 12:22:31;;;;;;;3.28;1.60;;;;;;;;;;4989920;28;20021;-81
2021/03/15 12:25:16;;;;;;;3.42;2.08;;;;;;;;;;4998013;28;20022;-81
2021/03/15 12:28:02;;;;;;;3.00;1.98;;;;;;;;;;4991686;28;20440;-83
2021/03/15 12:30:48;;;;;;;3.58;2.05;;;;;;;;;;5001644;28;20113;-82
2021/03/15 12:33:33;;;;;;;2.90;2.13;;;;;;;;;;5011490;28;20030;-80
2021/03/15 12:36:18;;;;;;;2.95;1.92;;;;;;;;;;4993885;28;20034;-82
2021/03/15 12:39:04;;;;;;;4.13;2.17;;;;;;;;;;4998679;28;20021;-80
2021/03/15 12:41:49;;;;;;;1.88;1.67;;;;;;;;;;4994988;28;20037;-81
2021/03/15 12:44:35;;;;;;;4.65;2.38;;;;;;;;;;5000523;28;20017;-82
2021/03/15 12:47:20;;;;;;;2.15;1.85;;;;;;;;;;4990652;28;20021;-83
2021/03/15 12:50:05;;;;;;;2.10;1.60;;;;;;;;;;4993428;28;20030;-81
2021/03/15 12:52:50;;;;;;;3.63;1.95;;;;;;;;;;4989121;28;20388;-82
2021/03/15 12:55:36;;;;;;;2.40;1.88;;;;;;;;;;5007330;28;20033;-82
2021/03/15 12:58:21;;;;;;;1.83;1.70;;;;;;;;;;5016690;28;20411;-82
2021/03/15 13:01:09;;;;;;;2.85;1.92;;;;;;;;;;5003463;28;20560;-82
2021/03/15 13:03:56;;;;;;;2.67;2.13;;;;;;;;;;4996860;28;20033;-82
2021/03/15 13:06:42;;;;;;;2.95;2.00;;;;;;;;;;5009164;28;20108;-86
2021/03/15 13:09:28;;;;;;;3.00;1.65;;;;;;;;;;5006316;28;20041;-81
2021/03/15 13:12:13;;;;;;;2.88;1.92;;;;;;;;;;4997709;28;20022;-83
2021/03/15 13:14:58;;;;;;;4.22;1.63;;;;;;;;;;4991461;28;20041;-87
2021/03/15 13:17:50;;;;;;;2.53;1.63;;;;;;;;;;4988726;28;20370;-86
2021/03/15 13:20:36;;;;;;;4.45;1.90;;;;;;;;;;5000526;28;20133;-84
2021/03/15 13:23:21;;;;;;;2.78;2.08;;;;;;;;;;5001956;28;20122;-84
2021/03/15 13:26:06;;;;;;;5.32;2.35;;;;;;;;;;5021997;28;20021;-85
2021/03/15 13:28:52;;;;;;;4.50;2.28;;;;;;;;;;4995570;28;20588;-84
2021/03/15 13:31:37;;;;;;;4.03;2.30;;;;;;;;;;4996692;28;20116;-86
2021/03/15 13:34:22;;;;;;;3.92;2.33;;;;;;;;;;4999577;28;20034;-86
2021/03/15 13:37:08;;;;;;;3.95;2.40;;;;;;;;;;4990121;28;20030;-84
2021/03/15 13:39:53;;;;;;;6.20;2.90;;;;;;;;;;5021946;28;20065;-86
2021/03/15 13:42:39;;;;;;;3.90;2.60;;;;;;;;;;4992474;28;20030;-86
2021/03/15 13:45:24;;;;;;;2.53;2.30;;;;;;;;;;4998288;28;20026;-89
2021/03/15 13:48:12;;;;;;;4.25;2.72;;;;;;;;;;5022707;28;20423;-87
2021/03/15 13:51:05;;;;;;;6.90;2.78;;;;;;;;;;5001995;28;20483;-86
2021/03/15 13:53:58;;;;;;;3.78;2.40;;;;;;;;;;5008354;28;20038;-87
2021/03/15 13:56:44;;;;;;;12.18;6.25;;;;;;;;;;5000567;28;20039;-85
2021/03/15 13:59:29;;;;;;;5.57;2.95;;;;;;;;;;4986378;28;20147;-83
2021/03/15 14:02:14;;;;;;;3.63;2.67;;;;;;;;;;5003152;28;20369;-82
2021/03/15 14:05:00;;;;;;;6.32;2.67;;;;;;;;;;5014955;28;20033;-83
2021/03/15 14:07:45;;;;;;;7.45;3.22;;;;;;;;;;4988447;28;20041;-81
2021/03/15 14:10:33;;;;;;;8.02;2.75;;;;;;;;;;4997473;28;20076;-84
2021/03/15 14:13:19;;;;;;;3.90;2.33;;;;;;;;;;5013792;28;20014;-84
2021/03/15 14:16:04;;;;;;;3.97;2.50;;;;;;;;;;4998678;28;20049;-82
2021/03/15 14:18:49;;;;;;;7.50;2.25;;;;;;;;;;5015653;28;20021;-82
2021/03/15 14:21:35;;;;;;;4.22;2.45;;;;;;;;;;5001726;28;20046;-82
2021/03/15 14:24:20;;;;;;;4.45;2.60;;;;;;;;;;4993879;28;20132;-81
2021/03/15 14:27:05;;;;;;;9.65;2.72;;;;;;;;;;5011364;28;20489;-83
2021/03/15 14:29:51;;;;;;;5.55;2.50;;;;;;;;;;5000646;28;20030;-82
2021/03/15 14:32:36;;;;;;;8.45;2.78;;;;;;;;;;4996185;28;20031;-82
2021/03/15 14:35:22;;;;;;;4.32;2.38;;;;;;;;;;5012794;28;20041;-83
2021/03/15 14:38:07;;;;;;;4.53;2.60;;;;;;;;;;5010815;28;20661;-85
2021/03/15 14:40:52;;;;;;;6.45;2.50;;;;;;;;;;4997204;28;20037;-84
2021/03/15 14:43:37;;;;;;;5.05;2.65;;;;;;;;;;5001873;28;20036;-87
2021/03/15 14:46:23;;;;;;;3.42;2.20;;;;;;;;;;5002947;28;20022;-85
2021/03/15 14:49:08;;;;;;;4.93;2.70;;;;;;;;;;4999332;28;20206;-82
2021/03/15 14:51:53;;;;;;;5.15;2.70;;;;;;;;;;4995049;28;20026;-84
2021/03/15 14:54:38;;;;;;;5.18;2.83;;;;;;;;;;5006058;28;20036;-85
2021/03/15 14:57:24;;;;;;;27.50;18.33;;;;;;;;;;5002006;28;20495;-84
2021/03/15 15:00:09;;;;;;;9.88;5.15;;;;;;;;;;5002059;28;20231;-84
2021/03/15 15:02:55;;;;;;;4.28;2.83;;;;;;;;;;5007035;28;20021;-82
2021/03/15 15:05:40;;;;;;;4.55;2.50;;;;;;;;;;5015668;28;20022;-84
2021/03/15 15:08:25;;;;;;;4.22;2.58;;;;;;;;;;4989509;28;20022;-84
2021/03/15 15:11:11;;;;;;;4.18;2.53;;;;;;;;;;5012887;28;20081;-85
2021/03/15 15:13:57;;;;;;;6.13;2.50;;;;;;;;;;5009875;28;20029;-85
2021/03/15 15:16:48;;;;;;;4.60;1.95;;;;;;;;;;5014464;28;20034;-85
2021/03/15 15:19:33;;;;;;;4.88;2.25;;;;;;;;;;4991851;28;20133;-84
2021/03/15 15:22:19;;;;;;;3.05;1.73;;;;;;;;;;5016478;28;20198;-83
2021/03/15 15:28:22;;;;;;;5.95;2.20;;;;;;;;;;4999727;28;20029;-84
2021/03/15 15:31:07;;;;;;;5.70;2.30;;;;;;;;;;5002256;28;20444;-83
2021/03/15 15:33:52;;;;;;;3.42;2.33;;;;;;;;;;5000675;28;20041;-83
2021/03/15 15:36:38;;;;;;;5.20;2.08;;;;;;;;;;5004188;28;20026;-84
2021/03/15 15:39:23;;;;;;;4.47;2.20;;;;;;;;;;4997908;28;20014;-83
2021/03/15 15:42:08;;;;;;;4.95;2.00;;;;;;;;;;5001951;28;20050;-83
2021/03/15 15:44:53;;;;;;;12.20;6.57;;;;;;;;;;5002370;28;20025;-85
2021/03/15 15:47:39;;;;;;;4.82;2.22;;;;;;;;;;5017655;28;20080;-84
2021/03/15 15:50:26;;;;;;;3.38;2.10;;;;;;;;;;4996335;28;20096;-86
2021/03/15 15:53:14;;;;;;;5.72;1.90;;;;;;;;;;5014356;28;20499;-85
2021/03/15 15:56:07;;;;;;;9.95;2.88;;;;;;;;;;5000559;28;20088;-87
2021/03/15 15:58:58;;;;;;;5.32;2.22;;;;;;;;;;5016534;28;20588;-86
2021/03/15 16:01:44;;;;;;;3.17;1.63;;;;;;;;;;5004087;28;20024;-84
2021/03/15 16:04:30;;;;;;;4.65;1.80;;;;;;;;;;4996546;28;20030;-84
2021/03/15 16:07:16;;;;;;;2.70;1.55;;;;;;;;;;5017173;28;20029;-84
2021/03/15 16:10:17;;;;;;;4.75;2.30;;;;;;;;;;5010569;28;20025;-85
2021/03/15 16:13:02;;;;;;;8.13;3.00;;;;;;;;;;5003646;28;20022;-83
2021/03/15 16:15:47;;;;;;;5.72;2.20;;;;;;;;;;4997582;28;20053;-81
2021/03/15 16:18:33;;;;;;;9.73;3.30;;;;;;;;;;4990487;28;20030;-84
2021/03/15 16:21:18;;;;;;;4.30;2.67;;;;;;;;;;5002013;28;20042;-83
2021/03/15 16:24:06;;;;;;;5.82;1.70;;;;;;;;;;4992438;28;20108;-82
2021/03/15 16:26:52;;;;;;;5.90;2.10;;;;;;;;;;5001616;28;20507;-85
2021/03/15 16:29:37;;;;;;;4.72;2.15;;;;;;;;;;4982454;28;20100;-85
2021/03/15 16:32:23;;;;;;;2.97;2.08;;;;;;;;;;4995294;28;20022;-84
2021/03/15 16:35:08;;;;;;;5.93;2.10;;;;;;;;;;5003628;28;20030;-84
2021/03/15 16:37:58;;;;;;;8.52;2.92;;;;;;;;;;4998134;28;20022;-84
2021/03/15 16:40:43;;;;;;;6.75;2.15;;;;;;;;;;4997054;28;20034;-86
2021/03/15 16:43:28;;;;;;;5.65;2.10;;;;;;;;;;5019439;28;20060;-82
2021/03/15 16:46:14;;;;;;;6.82;2.25;;;;;;;;;;5008833;28;20103;-83